成都 の空港の天気 - METARとTAF

成都双流国際空港 ( ZUUU / CTU ) - 中国 四川省成都市
飛行場実況気象(Metar)
観測時間01/17 02:00 CST (01/16 18:00 UTC)
風向・風速南 1m/s
視程6000m
天気現象
なし
気温8℃
湿度76%
気圧1026hPa
METARZUUU 161800Z 18001MPS 6000 NSC 08/04 Q1026 NOSIG
過去の天気等 Google飛行場航空写真 Wunderground天気予報

過去48時間のMETAR

飛行場予報(TAF)
発表時間: 1/16 23:03 CST (1/16 15:03 UTC)
予報対象時間: 17日2時 CST ~ 18日2時 CST
風向・風速南南西 3m/s
視程5000m
天気現象もや
全天の4割程度の雲 雲底高度 1520m
17日6時 CST ~ 17日7時 CST に徐々に
視程2300m
17日10時 CST ~ 17日11時 CST に徐々に
視程5000m
TAF ZUUU 161503Z 1618/1718 20003MPS 5000 BR SCT050 TX15/1707Z TN04/1623Z
BECMG 1622/1623 2300
BECMG 1702/1703 5000